createdAt,value
2019-03-23T00:00:42.760Z,4.35
2019-03-23T00:03:23.551Z,13.83
2019-03-23T00:08:48.032Z,6.12
2019-03-23T00:11:28.590Z,3.12
2019-03-23T00:14:09.295Z,2.85
2019-03-23T00:16:50.507Z,2.40
2019-03-23T00:19:30.967Z,2.45
2019-03-23T00:22:11.699Z,3.42
2019-03-23T00:24:52.100Z,2.58
2019-03-23T00:27:32.459Z,5.03
2019-03-23T00:30:12.998Z,2.47
2019-03-23T00:32:53.409Z,3.15
2019-03-23T00:35:34.263Z,3.35
2019-03-23T00:38:14.966Z,5.25
2019-03-23T00:40:55.868Z,7.67
2019-03-23T00:43:36.948Z,3.17
2019-03-23T00:46:17.559Z,4.87
2019-03-23T00:48:57.994Z,2.42
2019-03-23T00:51:38.823Z,6.42
2019-03-23T00:54:19.476Z,2.90
2019-03-23T00:56:59.928Z,3.27
2019-03-23T00:59:40.745Z,4.65
2019-03-23T01:02:21.155Z,3.25
2019-03-23T01:05:02.036Z,3.52
2019-03-23T01:07:42.599Z,3.00
2019-03-23T01:10:23.279Z,5.05
2019-03-23T01:13:03.915Z,6.70
2019-03-23T01:15:44.479Z,3.27
2019-03-23T01:18:25.572Z,3.20
2019-03-23T01:21:06.091Z,2.90
2019-03-23T01:23:46.806Z,8.48
2019-03-23T01:26:27.628Z,2.75
2019-03-23T01:29:08.373Z,2.83
2019-03-23T01:31:49.084Z,2.72
2019-03-23T01:34:29.458Z,7.12
2019-03-23T01:37:09.891Z,3.33
2019-03-23T01:39:50.559Z,5.17
2019-03-23T01:42:31.463Z,5.95
2019-03-23T01:45:12.304Z,5.42
2019-03-23T01:47:52.952Z,30.12
2019-03-23T01:50:33.442Z,3.35
2019-03-23T01:53:13.728Z,2.87
2019-03-23T01:55:54.283Z,5.22
2019-03-23T01:58:35.279Z,2.85
2019-03-23T02:01:16.135Z,2.90
2019-03-23T02:03:56.635Z,5.00
2019-03-23T02:06:37.694Z,3.10
2019-03-23T02:09:18.875Z,3.92
2019-03-23T02:11:59.624Z,3.55
2019-03-23T02:14:40.101Z,9.98
2019-03-23T02:17:20.587Z,2.72
2019-03-23T02:20:01.199Z,6.45
2019-03-23T02:22:41.915Z,2.25
2019-03-23T02:25:22.510Z,6.00
2019-03-23T02:28:03.174Z,4.37
2019-03-23T02:30:43.976Z,2.22
2019-03-23T02:33:24.639Z,3.58
2019-03-23T02:36:05.276Z,3.92
2019-03-23T02:38:45.776Z,5.08
2019-03-23T02:41:26.593Z,2.83
2019-03-23T02:44:07.277Z,2.58
2019-03-23T02:46:47.845Z,2.30
2019-03-23T02:49:28.493Z,5.47
2019-03-23T02:52:08.954Z,2.55
2019-03-23T02:57:33.244Z,9.65
2019-03-23T03:00:14.058Z,3.27
2019-03-23T03:02:54.660Z,7.37
2019-03-23T03:05:35.241Z,2.83
2019-03-23T03:08:15.936Z,6.83
2019-03-23T03:10:56.523Z,3.12
2019-03-23T03:13:37.331Z,4.37
2019-03-23T03:19:01.644Z,7.20
2019-03-23T03:21:42.440Z,7.35
2019-03-23T03:24:23.266Z,9.43
2019-03-23T03:27:03.643Z,5.78
2019-03-23T03:29:44.696Z,3.90
2019-03-23T03:32:25.274Z,3.33
2019-03-23T03:35:06.209Z,2.05
2019-03-23T03:37:56.513Z,3.98
2019-03-23T03:40:29.648Z,4.55
2019-03-23T03:43:10.311Z,2.58
2019-03-23T03:45:50.838Z,4.40
2019-03-23T03:48:31.436Z,3.15
2019-03-23T03:51:12.224Z,10.10
2019-03-23T03:53:52.947Z,4.85
2019-03-23T03:56:33.808Z,4.30
2019-03-23T03:59:14.285Z,7.50
2019-03-23T04:01:54.973Z,3.87
2019-03-23T04:04:36.006Z,4.08
2019-03-23T04:07:16.776Z,14.93
2019-03-23T04:09:57.476Z,5.10
2019-03-23T04:12:38.308Z,5.22
2019-03-23T04:15:19.259Z,3.90
2019-03-23T04:18:00.081Z,2.25
2019-03-23T04:20:40.552Z,4.08
2019-03-23T04:23:09.176Z,22.77
2019-03-23T04:25:56.900Z,7.08
2019-03-23T04:28:44.625Z,6.47
2019-03-23T04:31:32.723Z,4.15
2019-03-23T04:34:20.780Z,2.72
2019-03-23T04:37:08.487Z,5.62
2019-03-23T04:39:56.212Z,3.22
2019-03-23T04:42:43.941Z,2.37
2019-03-23T04:45:31.663Z,6.78
2019-03-23T04:48:19.375Z,7.47
2019-03-23T04:51:07.109Z,5.92
2019-03-23T04:53:54.819Z,8.00
2019-03-23T04:56:42.866Z,3.98
2019-03-23T04:59:30.572Z,6.65
2019-03-23T05:02:11.188Z,27.45
2019-03-23T05:04:54.941Z,3.70
2019-03-23T05:07:35.557Z,6.05
2019-03-23T05:10:16.342Z,2.58
2019-03-23T05:15:38.995Z,3.90
2019-03-23T05:18:19.715Z,5.22
2019-03-23T05:21:00.128Z,1.92
2019-03-23T05:23:40.463Z,1.95
2019-03-23T05:26:21.180Z,2.65
2019-03-23T05:29:01.716Z,4.00
2019-03-23T05:31:42.415Z,3.65
2019-03-23T05:34:23.011Z,4.50
2019-03-23T05:37:03.709Z,3.20
2019-03-23T05:39:44.268Z,12.63
2019-03-23T05:42:27.923Z,2.33
2019-03-23T05:45:08.958Z,4.05
2019-03-23T05:47:49.657Z,4.00
2019-03-23T05:50:30.164Z,12.47
2019-03-23T05:53:11.023Z,6.40
2019-03-23T05:55:51.243Z,5.28
2019-03-23T05:58:32.378Z,5.90
2019-03-23T06:01:12.595Z,3.58
2019-03-23T06:03:53.448Z,4.42
2019-03-23T06:06:33.883Z,8.10
2019-03-23T06:09:14.242Z,4.00
2019-03-23T06:11:54.752Z,6.78
2019-03-23T06:14:35.272Z,10.00
2019-03-23T06:17:15.420Z,4.75
2019-03-23T06:19:56.000Z,4.00
2019-03-23T06:22:36.707Z,3.58
2019-03-23T06:25:17.387Z,5.53
2019-03-23T06:27:58.455Z,3.70
2019-03-23T06:30:39.491Z,6.42
2019-03-23T06:33:19.703Z,7.33
2019-03-23T06:36:00.012Z,5.22
2019-03-23T06:38:40.577Z,7.33
2019-03-23T06:41:21.683Z,5.67
2019-03-23T06:44:02.302Z,13.13
2019-03-23T06:46:42.479Z,7.60
2019-03-23T06:49:23.128Z,8.33
2019-03-23T06:52:03.824Z,10.25
2019-03-23T06:54:44.299Z,5.03
2019-03-23T06:57:24.737Z,6.45
2019-03-23T07:00:05.228Z,8.03
2019-03-23T07:02:45.772Z,6.85
2019-03-23T07:05:26.380Z,8.13
2019-03-23T07:08:07.044Z,4.87
2019-03-23T07:10:47.247Z,11.12
2019-03-23T07:13:27.945Z,9.38
2019-03-23T07:16:08.192Z,11.97
2019-03-23T07:18:48.740Z,8.73
2019-03-23T07:21:29.180Z,10.88
2019-03-23T07:24:09.655Z,8.43
2019-03-23T07:26:50.647Z,12.30
2019-03-23T07:29:30.991Z,14.35
2019-03-23T07:32:11.303Z,10.40
2019-03-23T07:34:51.763Z,10.23
2019-03-23T07:37:32.423Z,18.05
2019-03-23T07:40:12.766Z,17.20
2019-03-23T07:42:53.491Z,12.18
2019-03-23T07:45:34.326Z,17.92
2019-03-23T07:48:14.707Z,10.95
2019-03-23T07:50:55.322Z,8.88
2019-03-23T07:53:35.939Z,12.50
2019-03-23T07:56:19.583Z,10.72
2019-03-23T07:59:00.583Z,10.85
2019-03-23T08:01:41.455Z,8.40
2019-03-23T08:04:22.179Z,16.42
2019-03-23T08:07:02.592Z,14.33
2019-03-23T08:09:43.174Z,16.62
2019-03-23T08:12:24.299Z,13.05
2019-03-23T08:15:04.848Z,19.25
2019-03-23T08:17:45.516Z,11.30
2019-03-23T08:20:25.956Z,13.85
2019-03-23T08:23:06.375Z,11.95
2019-03-23T08:25:47.647Z,17.20
2019-03-23T08:28:28.563Z,12.65
2019-03-23T08:31:09.715Z,12.30
2019-03-23T08:33:52.023Z,10.95
2019-03-23T08:36:32.472Z,11.88
2019-03-23T08:39:13.102Z,15.70
2019-03-23T08:41:53.456Z,17.17
2019-03-23T08:44:33.715Z,13.48
2019-03-23T08:47:14.459Z,14.83
2019-03-23T08:49:54.852Z,14.75
2019-03-23T08:52:35.465Z,12.82
2019-03-23T08:55:16.101Z,14.83
2019-03-23T08:57:56.466Z,13.93
2019-03-23T09:00:36.781Z,12.53
2019-03-23T09:03:17.660Z,15.00
2019-03-23T09:05:58.182Z,13.80
2019-03-23T09:08:38.518Z,14.07
2019-03-23T09:11:20.762Z,15.17
2019-03-23T09:14:01.655Z,17.80
2019-03-23T09:16:42.704Z,14.13
2019-03-23T09:19:23.414Z,18.30
2019-03-23T09:22:03.848Z,12.97
2019-03-23T09:24:44.739Z,16.60
2019-03-23T09:27:25.275Z,17.87
2019-03-23T09:30:06.135Z,16.00
2019-03-23T09:32:47.124Z,18.20
2019-03-23T09:35:27.409Z,18.73
2019-03-23T09:38:07.961Z,15.73
2019-03-23T09:40:48.739Z,15.30
2019-03-23T09:43:29.615Z,16.00
2019-03-23T09:46:10.704Z,18.73
2019-03-23T09:48:51.819Z,18.43
2019-03-23T09:51:32.423Z,29.30
2019-03-23T09:54:13.070Z,17.07
2019-03-23T09:56:53.459Z,16.47
2019-03-23T09:59:33.794Z,17.37
2019-03-23T10:02:14.494Z,14.53
2019-03-23T10:04:55.239Z,17.53
2019-03-23T10:07:36.288Z,18.43
2019-03-23T10:10:21.708Z,17.00
2019-03-23T10:13:00.015Z,24.33
2019-03-23T10:15:40.491Z,15.43
2019-03-23T10:18:21.535Z,16.73
2019-03-23T10:21:02.283Z,17.90
2019-03-23T10:23:43.018Z,20.80
2019-03-23T10:26:23.643Z,20.23
2019-03-23T10:29:04.207Z,16.73
2019-03-23T10:31:44.751Z,15.60
2019-03-23T10:34:25.419Z,18.03
2019-03-23T10:37:05.787Z,13.40
2019-03-23T10:39:46.527Z,16.17
2019-03-23T10:42:27.239Z,15.03
2019-03-23T10:45:07.933Z,19.83
2019-03-23T10:47:49.118Z,22.37
2019-03-23T10:50:29.899Z,20.10
2019-03-23T10:53:10.628Z,19.77
2019-03-23T10:55:51.687Z,29.60
2019-03-23T10:58:32.768Z,21.23
2019-03-23T11:01:13.251Z,20.27
2019-03-23T11:03:54.240Z,29.37
2019-03-23T11:09:18.904Z,22.03
2019-03-23T11:11:59.980Z,24.23
2019-03-23T11:14:40.631Z,25.10
2019-03-23T11:17:21.043Z,32.27
2019-03-23T11:20:01.659Z,27.63
2019-03-23T11:22:42.199Z,25.40
2019-03-23T11:25:23.075Z,27.47
2019-03-23T11:28:03.828Z,27.30
2019-03-23T11:30:44.507Z,25.10
2019-03-23T11:33:25.355Z,28.47
2019-03-23T11:36:06.151Z,30.77
2019-03-23T11:38:46.535Z,28.57
2019-03-23T11:41:27.095Z,30.90
2019-03-23T11:44:07.851Z,29.40
2019-03-23T11:46:48.539Z,30.57
2019-03-23T11:49:29.124Z,30.10
2019-03-23T11:52:09.987Z,28.43
2019-03-23T11:54:50.623Z,37.77
2019-03-23T11:57:31.287Z,30.70
2019-03-23T12:00:11.819Z,30.53
2019-03-23T12:02:52.599Z,31.60
2019-03-23T12:05:33.326Z,39.83
2019-03-23T12:08:13.980Z,35.40
2019-03-23T12:11:02.512Z,34.90
2019-03-23T12:13:37.215Z,31.67
2019-03-23T12:16:17.632Z,27.83
2019-03-23T12:18:58.061Z,29.43
2019-03-23T12:21:38.412Z,31.93
2019-03-23T12:24:18.926Z,33.50
2019-03-23T12:26:59.526Z,32.03
2019-03-23T12:29:40.436Z,31.50
2019-03-23T12:32:21.054Z,29.90
2019-03-23T12:35:02.005Z,28.03
2019-03-23T12:37:43.191Z,33.03
2019-03-23T12:40:23.616Z,31.80
2019-03-23T12:43:04.715Z,31.47
2019-03-23T12:45:45.008Z,32.47
2019-03-23T12:48:25.617Z,26.73
2019-03-23T12:51:06.363Z,32.40
2019-03-23T12:53:46.927Z,38.83
2019-03-23T12:56:27.775Z,34.90
2019-03-23T12:59:08.199Z,35.73
2019-03-23T13:01:48.831Z,37.13
2019-03-23T13:04:29.407Z,40.60
2019-03-23T13:07:10.280Z,42.40
2019-03-23T13:09:50.707Z,34.70
2019-03-23T13:12:31.691Z,45.30
2019-03-23T13:15:12.584Z,40.80
2019-03-23T13:17:53.515Z,39.80
2019-03-23T13:23:15.960Z,43.90
2019-03-23T13:25:56.487Z,39.60
2019-03-23T13:31:20.735Z,46.23
2019-03-23T13:34:01.448Z,45.37
2019-03-23T13:36:42.232Z,53.33
2019-03-23T13:39:23.229Z,45.55
2019-03-23T13:42:03.844Z,46.83
2019-03-23T13:44:44.691Z,46.68
2019-03-23T13:47:25.307Z,48.25
2019-03-23T13:50:06.168Z,54.30
2019-03-23T13:52:46.895Z,53.90
2019-03-23T13:55:27.404Z,51.50
2019-03-23T13:58:08.611Z,51.13
2019-03-23T14:00:48.852Z,49.30
2019-03-23T14:03:29.315Z,47.13
2019-03-23T14:06:09.955Z,45.40
2019-03-23T14:08:50.543Z,51.70
2019-03-23T14:11:31.396Z,56.08
2019-03-23T14:14:11.896Z,44.95
2019-03-23T14:16:53.180Z,48.70
2019-03-23T14:19:34.115Z,59.45
2019-03-23T14:22:14.647Z,44.20
2019-03-23T14:24:55.463Z,48.00
2019-03-23T14:27:36.091Z,44.58
2019-03-23T14:30:16.733Z,44.08
2019-03-23T14:35:39.576Z,56.68
2019-03-23T14:38:20.279Z,50.33
2019-03-23T14:41:00.751Z,51.73
2019-03-23T14:43:41.099Z,56.40
2019-03-23T14:46:21.856Z,56.30
2019-03-23T14:49:02.355Z,54.70
2019-03-23T14:51:43.316Z,59.90
2019-03-23T14:54:23.733Z,64.47
2019-03-23T14:57:04.004Z,65.90
2019-03-23T14:59:44.615Z,68.00
2019-03-23T15:02:25.147Z,70.92
2019-03-23T15:05:05.935Z,64.60
2019-03-23T15:10:29.160Z,64.90
2019-03-23T15:13:10.411Z,62.95
2019-03-23T15:15:51.367Z,62.20
2019-03-23T15:18:31.667Z,73.70
2019-03-23T15:21:12.296Z,71.47
2019-03-23T15:23:52.788Z,66.72
2019-03-23T15:26:33.143Z,74.00
2019-03-23T15:29:13.671Z,55.65
2019-03-23T15:31:54.216Z,62.38
2019-03-23T15:34:35.027Z,60.92
2019-03-23T15:37:15.326Z,58.02
2019-03-23T15:39:56.190Z,72.08
2019-03-23T15:42:36.499Z,68.15
2019-03-23T15:45:17.573Z,61.88
2019-03-23T15:47:58.108Z,69.72
2019-03-23T15:50:38.901Z,64.25
2019-03-23T15:53:19.823Z,57.13
2019-03-23T15:56:00.231Z,62.43
2019-03-23T15:58:40.924Z,62.80
2019-03-23T16:01:23.235Z,79.17
2019-03-23T16:04:04.310Z,69.47
2019-03-23T16:06:45.008Z,69.10
2019-03-23T16:09:26.175Z,64.12
2019-03-23T16:12:06.751Z,70.47
2019-03-23T16:14:47.323Z,63.48
2019-03-23T16:17:27.839Z,59.90
2019-03-23T16:20:08.738Z,82.90
2019-03-23T16:22:49.119Z,62.85
2019-03-23T16:25:29.315Z,70.72
2019-03-23T16:28:10.107Z,64.12
2019-03-23T16:30:51.089Z,61.92
2019-03-23T16:33:31.495Z,64.50
2019-03-23T16:36:12.003Z,57.78
2019-03-23T16:38:52.623Z,81.85
2019-03-23T16:41:33.191Z,62.50
2019-03-23T16:44:13.321Z,74.27
2019-03-23T16:46:53.615Z,60.80
2019-03-23T16:49:34.103Z,78.97
2019-03-23T16:52:14.844Z,78.05
2019-03-23T16:54:55.164Z,68.07
2019-03-23T16:57:36.299Z,73.07
2019-03-23T17:00:16.907Z,83.10
2019-03-23T17:02:57.598Z,78.47
2019-03-23T17:05:38.120Z,65.57
2019-03-23T17:08:18.454Z,74.53
2019-03-23T17:10:58.731Z,78.00
2019-03-23T17:13:39.431Z,79.55
2019-03-23T17:16:20.204Z,71.30
2019-03-23T17:19:00.662Z,65.03
2019-03-23T17:21:41.403Z,57.17
2019-03-23T17:24:21.976Z,68.40
2019-03-23T17:27:02.592Z,59.95
2019-03-23T17:29:42.942Z,71.20
2019-03-23T17:32:23.524Z,81.60
2019-03-23T17:35:03.910Z,63.98
2019-03-23T17:37:44.876Z,74.72
2019-03-23T17:40:25.354Z,71.05
2019-03-23T17:43:06.442Z,71.25
2019-03-23T17:45:47.467Z,53.42
2019-03-23T17:48:27.871Z,84.25
2019-03-23T17:51:08.826Z,75.52
2019-03-23T17:53:58.244Z,59.13
2019-03-23T17:56:31.815Z,63.15
2019-03-23T17:59:12.564Z,52.85
2019-03-23T18:01:53.035Z,70.42
2019-03-23T18:04:33.824Z,67.53
2019-03-23T18:07:14.412Z,53.35
2019-03-23T18:09:55.119Z,79.75
2019-03-23T18:12:35.837Z,78.22
2019-03-23T18:15:16.455Z,71.40
2019-03-23T18:17:56.747Z,71.28
2019-03-23T18:20:37.147Z,54.50
2019-03-23T18:23:17.438Z,73.97
2019-03-23T18:25:57.944Z,59.63
2019-03-23T18:28:38.806Z,65.30
2019-03-23T18:31:19.487Z,57.70
2019-03-23T18:33:59.931Z,77.08
2019-03-23T18:36:40.615Z,70.62
2019-03-23T18:39:21.459Z,80.80
2019-03-23T18:42:02.848Z,59.98
2019-03-23T18:44:43.279Z,66.42
2019-03-23T18:47:23.896Z,59.53
2019-03-23T18:50:04.507Z,62.85
2019-03-23T18:52:45.398Z,67.72
2019-03-23T18:55:26.267Z,63.78
2019-03-23T18:58:07.439Z,63.70
2019-03-23T19:00:48.632Z,55.15
2019-03-23T19:03:29.038Z,55.38
2019-03-23T19:06:09.427Z,77.62
2019-03-23T19:08:49.876Z,75.47
2019-03-23T19:11:30.373Z,62.48
2019-03-23T19:14:12.341Z,67.22
2019-03-23T19:16:52.674Z,77.32
2019-03-23T19:19:33.621Z,67.35
2019-03-23T19:22:14.015Z,70.22
2019-03-23T19:24:54.563Z,69.80
2019-03-23T19:27:35.010Z,55.05
2019-03-23T19:30:15.500Z,63.45
2019-03-23T19:32:55.710Z,58.55
2019-03-23T19:35:36.188Z,58.17
2019-03-23T19:38:18.105Z,59.83
2019-03-23T19:40:59.364Z,60.03
2019-03-23T19:43:48.414Z,48.20
2019-03-23T19:46:22.595Z,56.58
2019-03-23T19:49:02.956Z,67.32
2019-03-23T19:51:43.836Z,54.18
2019-03-23T19:54:24.683Z,51.92
2019-03-23T19:57:05.507Z,55.55
2019-03-23T19:59:46.294Z,54.98
2019-03-23T20:02:27.131Z,55.48
2019-03-23T20:05:07.431Z,61.18
2019-03-23T20:07:48.103Z,51.23
2019-03-23T20:10:28.540Z,48.87
2019-03-23T20:13:09.246Z,31.68
2019-03-23T20:15:49.663Z,41.68
2019-03-23T20:18:30.355Z,30.32
2019-03-23T20:21:10.656Z,40.98
2019-03-23T20:23:51.408Z,37.53
2019-03-23T20:26:31.839Z,35.55
2019-03-23T20:29:12.195Z,33.40
2019-03-23T20:31:52.725Z,32.45
2019-03-23T20:34:33.216Z,35.78
2019-03-23T20:37:13.819Z,30.65
2019-03-23T20:39:54.155Z,26.97
2019-03-23T20:42:34.602Z,18.85
2019-03-23T20:45:15.779Z,25.35
2019-03-23T20:47:56.207Z,27.55
2019-03-23T20:50:36.630Z,33.60
2019-03-23T20:53:17.123Z,26.52
2019-03-23T20:55:58.036Z,33.53
2019-03-23T20:58:39.295Z,34.05
2019-03-23T21:01:19.891Z,25.55
2019-03-23T21:04:00.583Z,23.87
2019-03-23T21:06:41.051Z,28.92
2019-03-23T21:09:21.633Z,23.40
2019-03-23T21:12:02.347Z,25.92
2019-03-23T21:14:43.208Z,23.75
2019-03-23T21:17:23.695Z,25.05
2019-03-23T21:20:03.979Z,29.77
2019-03-23T21:22:44.998Z,23.38
2019-03-23T21:25:25.479Z,30.12
2019-03-23T21:28:06.080Z,25.65
2019-03-23T21:30:47.304Z,30.65
2019-03-23T21:33:31.947Z,23.32
2019-03-23T21:36:10.755Z,47.45
2019-03-23T21:38:51.187Z,28.42
2019-03-23T21:41:31.430Z,25.52
2019-03-23T21:44:12.083Z,26.00
2019-03-23T21:46:52.979Z,33.38
2019-03-23T21:49:34.108Z,26.00
2019-03-23T21:52:15.180Z,41.00
2019-03-23T21:54:55.660Z,34.05
2019-03-23T21:57:36.043Z,24.55
2019-03-23T22:00:16.571Z,22.55
2019-03-23T22:02:57.559Z,25.62
2019-03-23T22:05:38.067Z,27.90
2019-03-23T22:08:18.983Z,24.37
2019-03-23T22:10:59.463Z,32.65
2019-03-23T22:13:39.926Z,31.02
2019-03-23T22:16:21.231Z,24.47
2019-03-23T22:19:01.939Z,34.80
2019-03-23T22:21:42.923Z,28.90
2019-03-23T22:24:23.151Z,27.05
2019-03-23T22:27:03.593Z,22.95
2019-03-23T22:29:44.367Z,23.15
2019-03-23T22:32:24.948Z,32.98
2019-03-23T22:35:06.223Z,28.07
2019-03-23T22:37:46.816Z,28.35
2019-03-23T22:40:28.322Z,23.77
2019-03-23T22:43:08.631Z,32.33
2019-03-23T22:45:49.317Z,27.20
2019-03-23T22:48:29.760Z,37.00
2019-03-23T22:51:10.435Z,37.28
2019-03-23T22:53:51.123Z,30.12
2019-03-23T22:56:32.104Z,36.53
2019-03-23T22:59:15.282Z,26.02
2019-03-23T23:01:55.296Z,29.40
2019-03-23T23:04:35.991Z,26.15
2019-03-23T23:07:16.756Z,26.02
2019-03-23T23:09:57.147Z,31.48
2019-03-23T23:12:37.563Z,28.32
2019-03-23T23:15:18.232Z,35.58
2019-03-23T23:17:58.772Z,25.65
2019-03-23T23:20:39.670Z,27.52
2019-03-23T23:23:20.107Z,22.02
2019-03-23T23:26:00.771Z,35.60
2019-03-23T23:28:41.787Z,27.37
2019-03-23T23:31:22.644Z,26.35
2019-03-23T23:34:03.346Z,33.48
2019-03-23T23:36:43.991Z,27.22
2019-03-23T23:39:24.707Z,31.35
2019-03-23T23:42:05.277Z,34.90
2019-03-23T23:44:46.458Z,27.42
2019-03-23T23:47:27.067Z,32.75
2019-03-23T23:50:07.374Z,40.45
2019-03-23T23:52:47.811Z,42.67
2019-03-23T23:55:28.364Z,28.57
2019-03-23T23:58:09.350Z,31.45
